Time;durP1;ratioP1;P1;durP2;ratioP2;P2;SDS_P1;SDS_P2;PMS_P1;PMS_P2;Temp;Humidity;BMP_temperature;BMP_pressure;BME280_temperature;BME280_humidity;BME280_pressure;Samples;Min_cycle;Max_cycle;Signal;HPM_P1;HPM_P2
2022/07/27 00:00:47;;;;;;;;;;;18.60;99.90;;;;;;4591522;19;19922;-33
2022/07/27 00:02:18;;;;;;;;;;;18.70;99.90;;;;;;4592722;19;19942;-33
2022/07/27 00:03:49;;;;;;;;;;;18.60;99.90;;;;;;4592246;19;19934;-33
2022/07/27 00:05:20;;;;;;;;;;;18.60;99.90;;;;;;4590953;19;19923;-33
2022/07/27 00:06:51;;;;;;;;;;;18.60;99.90;;;;;;4589742;19;19934;-33
2022/07/27 00:08:22;;;;;;;;;;;18.60;99.90;;;;;;4592306;19;20456;-32
2022/07/27 00:09:53;;;;;;;;;;;18.60;99.90;;;;;;4593124;19;19952;-33
2022/07/27 00:11:24;;;;;;;;;;;18.60;99.90;;;;;;4592515;19;19990;-32
2022/07/27 00:12:55;;;;;;;;;;;18.50;99.90;;;;;;4593894;19;19918;-33
2022/07/27 00:14:26;;;;;;;;;;;18.50;99.90;;;;;;4593341;19;19922;-33
2022/07/27 00:15:57;;;;;;;;;;;18.50;99.90;;;;;;4593091;19;19950;-34
2022/07/27 00:17:28;;;;;;;;;;;18.50;99.90;;;;;;4591133;19;19941;-33
2022/07/27 00:18:59;;;;;;;;;;;18.50;99.90;;;;;;4593887;19;19923;-33
2022/07/27 00:20:30;;;;;;;;;;;18.40;99.90;;;;;;4593065;19;20233;-33
2022/07/27 00:22:01;;;;;;;;;;;18.40;99.90;;;;;;4591899;19;19926;-34
2022/07/27 00:23:33;;;;;;;;;;;18.40;99.90;;;;;;4589323;19;20367;-33
2022/07/27 00:25:04;;;;;;;;;;;18.40;99.90;;;;;;4591308;19;19911;-32
2022/07/27 00:26:35;;;;;;;;;;;18.40;99.90;;;;;;4593851;19;19915;-33
2022/07/27 00:28:06;;;;;;;;;;;18.30;99.90;;;;;;4591618;19;19927;-33
2022/07/27 00:29:37;;;;;;;;;;;18.30;99.90;;;;;;4591167;19;20307;-32
2022/07/27 00:31:08;;;;;;;;;;;18.30;99.90;;;;;;4592792;19;19919;-33
2022/07/27 00:32:39;;;;;;;;;;;18.30;99.90;;;;;;4591248;19;19911;-33
2022/07/27 00:34:10;;;;;;;;;;;18.30;99.90;;;;;;4591956;19;20278;-33
2022/07/27 00:35:41;;;;;;;;;;;18.20;99.90;;;;;;4592938;19;19937;-32
2022/07/27 00:37:12;;;;;;;;;;;18.20;99.90;;;;;;4592777;19;19915;-32
2022/07/27 00:38:42;;;;;;;;;;;18.20;99.90;;;;;;4592655;19;19951;-33
2022/07/27 00:40:13;;;;;;;;;;;18.20;99.90;;;;;;4592484;19;19923;-33
2022/07/27 00:41:45;;;;;;;;;;;18.20;99.90;;;;;;4591168;19;19919;-33
2022/07/27 00:43:15;;;;;;;;;;;18.20;99.90;;;;;;4591950;19;19918;-31
2022/07/27 00:44:46;;;;;;;;;;;18.10;99.90;;;;;;4592095;19;20256;-33
2022/07/27 00:46:17;;;;;;;;;;;18.10;99.90;;;;;;4593459;19;19930;-33
2022/07/27 00:47:48;;;;;;;;;;;18.10;99.90;;;;;;4591577;19;19915;-32
2022/07/27 00:49:19;;;;;;;;;;;18.00;99.90;;;;;;4590929;19;20297;-33
2022/07/27 00:50:50;;;;;;;;;;;18.10;99.90;;;;;;4590746;19;19923;-33
2022/07/27 00:52:21;;;;;;;;;;;18.10;99.90;;;;;;4590137;19;19925;-34
2022/07/27 00:53:53;;;;;;;;;;;18.00;99.90;;;;;;4593136;19;19974;-34
2022/07/27 00:55:24;;;;;;;;;;;18.00;99.90;;;;;;4591639;19;20505;-33
2022/07/27 00:56:54;;;;;;;;;;;18.00;99.90;;;;;;4591196;19;19928;-34
2022/07/27 00:58:26;;;;;;;;;;;18.00;99.90;;;;;;4591065;19;20340;-33
2022/07/27 00:59:57;;;;;;;;;;;18.00;99.90;;;;;;4591883;19;19914;-33
2022/07/27 01:01:28;;;;;;;;;;;18.00;99.90;;;;;;4590878;19;19961;-33
2022/07/27 01:02:59;;;;;;;;;;;18.00;99.90;;;;;;4590215;19;19919;-33
2022/07/27 01:04:30;;;;;;;;;;;18.00;99.90;;;;;;4591325;19;20000;-33
2022/07/27 01:06:01;;;;;;;;;;;17.90;99.90;;;;;;4589456;19;20287;-33
2022/07/27 01:07:32;;;;;;;;;;;17.90;99.90;;;;;;4589161;19;19923;-34
2022/07/27 01:10:53;;;;;;;;;;;17.90;99.90;;;;;;4591178;19;19938;-34
2022/07/27 01:12:25;;;;;;;;;;;17.90;99.90;;;;;;4591949;19;20261;-33
2022/07/27 01:13:56;;;;;;;;;;;17.90;99.90;;;;;;4591072;19;19915;-34
2022/07/27 01:15:27;;;;;;;;;;;17.90;99.90;;;;;;4592641;19;19990;-31
2022/07/27 01:16:58;;;;;;;;;;;17.80;99.90;;;;;;4592019;19;19915;-33
2022/07/27 01:18:35;;;;;;;;;;;17.90;99.90;;;;;;4591759;19;19919;-33
2022/07/27 01:20:07;;;;;;;;;;;17.80;99.90;;;;;;4591240;19;19923;-32
2022/07/27 01:21:38;;;;;;;;;;;17.80;99.90;;;;;;4590714;19;19915;-33
2022/07/27 01:23:09;;;;;;;;;;;17.80;99.90;;;;;;4588619;19;20335;-33
2022/07/27 01:24:41;;;;;;;;;;;17.80;99.90;;;;;;4591688;19;19937;-34
2022/07/27 01:26:11;;;;;;;;;;;17.70;99.90;;;;;;4590986;19;20265;-33
2022/07/27 01:27:42;;;;;;;;;;;17.70;99.90;;;;;;4589753;19;19981;-34
2022/07/27 01:29:13;;;;;;;;;;;17.70;99.90;;;;;;4591887;19;19923;-32
2022/07/27 01:30:45;;;;;;;;;;;17.70;99.90;;;;;;4591514;19;19937;-33
2022/07/27 01:32:16;;;;;;;;;;;17.70;99.90;;;;;;4591835;19;19926;-33
2022/07/27 01:33:46;;;;;;;;;;;17.70;99.90;;;;;;4590952;19;19919;-33
2022/07/27 01:35:17;;;;;;;;;;;17.70;99.90;;;;;;4592061;19;19911;-34
2022/07/27 01:36:49;;;;;;;;;;;17.70;99.90;;;;;;4590504;19;19918;-32
2022/07/27 01:38:20;;;;;;;;;;;17.70;99.90;;;;;;4591251;19;20613;-33
2022/07/27 01:39:50;;;;;;;;;;;17.70;99.90;;;;;;4588736;19;20331;-32
2022/07/27 01:41:21;;;;;;;;;;;17.70;99.90;;;;;;4589102;19;19938;-32
2022/07/27 01:42:53;;;;;;;;;;;17.70;99.90;;;;;;4590222;19;19918;-33
2022/07/27 01:44:23;;;;;;;;;;;17.70;99.90;;;;;;4590985;19;20332;-33
2022/07/27 01:45:58;;;;;;;;;;;17.60;99.90;;;;;;4590442;19;19938;-32
2022/07/27 01:47:29;;;;;;;;;;;17.60;99.90;;;;;;4589331;19;19931;-34
2022/07/27 01:49:00;;;;;;;;;;;17.60;99.90;;;;;;4591942;19;19923;-33
2022/07/27 01:50:31;;;;;;;;;;;17.60;99.90;;;;;;4591236;19;19926;-32
2022/07/27 01:52:02;;;;;;;;;;;17.60;99.90;;;;;;4591204;19;19978;-33
2022/07/27 01:53:33;;;;;;;;;;;17.60;99.90;;;;;;4589911;19;19926;-34
2022/07/27 01:55:08;;;;;;;;;;;17.60;99.90;;;;;;4590145;19;19915;-33
2022/07/27 01:56:39;;;;;;;;;;;17.60;99.90;;;;;;4592089;19;19919;-33
2022/07/27 01:58:11;;;;;;;;;;;17.60;99.90;;;;;;4591573;19;19937;-33
2022/07/27 01:59:41;;;;;;;;;;;17.50;99.90;;;;;;4590685;19;19914;-33
2022/07/27 02:01:13;;;;;;;;;;;17.50;99.90;;;;;;4591559;19;19994;-33
2022/07/27 02:02:44;;;;;;;;;;;17.50;99.90;;;;;;4589773;19;20340;-33
2022/07/27 02:04:17;;;;;;;;;;;17.50;99.90;;;;;;4591393;19;19921;-33
2022/07/27 02:05:47;;;;;;;;;;;17.50;99.90;;;;;;4589101;19;19927;-32
2022/07/27 02:07:19;;;;;;;;;;;17.50;99.90;;;;;;4591412;19;19923;-33
2022/07/27 02:08:50;;;;;;;;;;;17.50;99.90;;;;;;4591043;19;19935;-34
2022/07/27 02:10:20;;;;;;;;;;;17.50;99.90;;;;;;4589956;19;19919;-34
2022/07/27 02:13:46;;;;;;;;;;;17.50;99.90;;;;;;4591101;19;19937;-33
2022/07/27 02:15:20;;;;;;;;;;;17.50;99.90;;;;;;4590634;19;19919;-33
2022/07/27 02:16:51;;;;;;;;;;;17.50;99.90;;;;;;4590744;19;19911;-33
2022/07/27 02:18:22;;;;;;;;;;;17.50;99.90;;;;;;4590136;19;19926;-33
2022/07/27 02:19:53;;;;;;;;;;;17.50;99.90;;;;;;4589460;19;20002;-34
2022/07/27 02:21:24;;;;;;;;;;;17.50;99.90;;;;;;4591431;19;20253;-33
2022/07/27 02:22:56;;;;;;;;;;;17.50;99.90;;;;;;4588653;19;19923;-34
2022/07/27 02:24:27;;;;;;;;;;;17.50;99.90;;;;;;4590234;19;19915;-33
2022/07/27 02:25:58;;;;;;;;;;;17.50;99.90;;;;;;4591094;19;20037;-33
2022/07/27 02:27:29;;;;;;;;;;;17.50;99.90;;;;;;4591569;19;19919;-33
2022/07/27 02:29:00;;;;;;;;;;;17.50;99.90;;;;;;4590716;19;20329;-33
2022/07/27 02:30:32;;;;;;;;;;;17.50;99.90;;;;;;4589463;19;19926;-33
2022/07/27 02:32:03;;;;;;;;;;;17.50;99.90;;;;;;4591460;19;19995;-34
2022/07/27 02:33:34;;;;;;;;;;;17.50;99.90;;;;;;4589993;19;19954;-34
2022/07/27 02:35:06;;;;;;;;;;;17.50;99.90;;;;;;4590334;19;19918;-33
2022/07/27 02:36:37;;;;;;;;;;;17.50;99.90;;;;;;4591809;19;19943;-32
2022/07/27 02:38:08;;;;;;;;;;;17.50;99.90;;;;;;4589769;19;19918;-32
2022/07/27 02:39:39;;;;;;;;;;;17.50;99.90;;;;;;4591070;19;20337;-33
2022/07/27 02:41:09;;;;;;;;;;;17.50;99.90;;;;;;4590769;19;19945;-32
2022/07/27 02:42:40;;;;;;;;;;;17.50;99.90;;;;;;4589384;19;19914;-33
2022/07/27 02:44:13;;;;;;;;;;;17.50;99.90;;;;;;4591805;19;19940;-33
2022/07/27 02:45:44;;;;;;;;;;;17.50;99.90;;;;;;4590419;19;19974;-33
2022/07/27 02:47:15;;;;;;;;;;;17.50;99.90;;;;;;4588724;19;19926;-33
2022/07/27 02:48:46;;;;;;;;;;;17.50;99.90;;;;;;4591429;19;19927;-33
2022/07/27 02:50:17;;;;;;;;;;;17.50;99.90;;;;;;4589791;19;19923;-33
2022/07/27 02:51:49;;;;;;;;;;;17.50;99.90;;;;;;4590408;19;19925;-34
2022/07/27 02:53:20;;;;;;;;;;;17.50;99.90;;;;;;4590498;19;20026;-33
2022/07/27 02:54:51;;;;;;;;;;;17.50;99.90;;;;;;4595231;19;20339;-33
2022/07/27 02:56:22;;;;;;;;;;;17.50;99.90;;;;;;4595710;19;19939;-32
2022/07/27 02:57:53;;;;;;;;;;;17.50;99.90;;;;;;4593345;19;19926;-34
2022/07/27 02:59:24;;;;;;;;;;;17.50;99.90;;;;;;4595354;19;19941;-33
2022/07/27 03:00:55;;;;;;;;;;;17.50;99.90;;;;;;4594335;19;19948;-33
2022/07/27 03:02:26;;;;;;;;;;;17.50;99.90;;;;;;4590328;19;19919;-34
2022/07/27 03:03:57;;;;;;;;;;;17.50;99.90;;;;;;4594771;19;20340;-33
2022/07/27 03:05:28;;;;;;;;;;;17.50;99.90;;;;;;4593623;19;19918;-32
2022/07/27 03:06:58;;;;;;;;;;;17.50;99.90;;;;;;4592747;19;19922;-33
2022/07/27 03:08:30;;;;;;;;;;;17.50;99.90;;;;;;4594309;19;19996;-33
2022/07/27 03:10:00;;;;;;;;;;;17.50;99.90;;;;;;4595288;19;19915;-34
2022/07/27 03:11:31;;;;;;;;;;;17.50;99.90;;;;;;4594704;19;19927;-34
2022/07/27 03:13:02;;;;;;;;;;;17.50;99.90;;;;;;4594770;19;19914;-33
2022/07/27 03:14:34;;;;;;;;;;;17.50;99.90;;;;;;4593027;19;19998;-33
2022/07/27 03:16:04;;;;;;;;;;;17.50;99.90;;;;;;4592077;19;19919;-32
2022/07/27 03:17:35;;;;;;;;;;;17.50;99.90;;;;;;4591139;19;19919;-32
2022/07/27 03:19:06;;;;;;;;;;;17.50;99.90;;;;;;4594433;19;19911;-32
2022/07/27 03:20:37;;;;;;;;;;;17.50;99.90;;;;;;4593171;19;19986;-33
2022/07/27 03:22:08;;;;;;;;;;;17.50;99.90;;;;;;4592361;19;19915;-33
2022/07/27 03:23:39;;;;;;;;;;;17.50;99.90;;;;;;4594410;19;19946;-34
2022/07/27 03:25:10;;;;;;;;;;;17.50;99.90;;;;;;4593154;19;19911;-33
2022/07/27 03:26:41;;;;;;;;;;;17.50;99.90;;;;;;4595118;19;20009;-34
2022/07/27 03:28:12;;;;;;;;;;;17.40;99.90;;;;;;4593349;19;20034;-33
2022/07/27 03:29:43;;;;;;;;;;;17.40;99.90;;;;;;4593226;19;20230;-33
2022/07/27 03:31:14;;;;;;;;;;;17.40;99.90;;;;;;4593792;19;19926;-32
2022/07/27 03:32:47;;;;;;;;;;;17.40;99.90;;;;;;4594807;19;19923;-33
2022/07/27 03:34:18;;;;;;;;;;;17.40;99.90;;;;;;4592432;19;19918;-33
2022/07/27 03:35:49;;;;;;;;;;;17.40;99.90;;;;;;4594539;19;19932;-34
2022/07/27 03:37:20;;;;;;;;;;;17.40;99.90;;;;;;4593145;19;19919;-33
2022/07/27 03:38:51;;;;;;;;;;;17.40;99.90;;;;;;4594262;19;19919;-33
2022/07/27 03:40:22;;;;;;;;;;;17.40;99.90;;;;;;4594323;19;19993;-33
2022/07/27 03:41:53;;;;;;;;;;;17.40;99.90;;;;;;4590357;19;19929;-33
2022/07/27 03:43:24;;;;;;;;;;;17.40;99.90;;;;;;4594392;19;19918;-33
2022/07/27 03:44:55;;;;;;;;;;;17.40;99.90;;;;;;4592519;19;19927;-33
2022/07/27 03:46:26;;;;;;;;;;;17.40;99.90;;;;;;4592093;19;19921;-33
2022/07/27 03:47:56;;;;;;;;;;;17.40;99.90;;;;;;4592880;19;19929;-33
2022/07/27 03:49:27;;;;;;;;;;;17.50;99.90;;;;;;4592136;19;19919;-33
2022/07/27 03:50:59;;;;;;;;;;;17.40;99.90;;;;;;4594066;19;19929;-33
2022/07/27 03:52:29;;;;;;;;;;;17.40;99.90;;;;;;4592510;19;19919;-33
2022/07/27 03:54:02;;;;;;;;;;;17.40;99.90;;;;;;4592797;19;19923;-32
2022/07/27 03:55:33;;;;;;;;;;;17.40;99.90;;;;;;4592620;19;20612;-34
2022/07/27 03:57:04;;;;;;;;;;;17.40;99.90;;;;;;4593892;19;19991;-33
2022/07/27 03:58:35;;;;;;;;;;;17.40;99.90;;;;;;4592447;19;20324;-33
2022/07/27 04:00:07;;;;;;;;;;;17.50;99.90;;;;;;4593895;19;19919;-33
2022/07/27 04:01:38;;;;;;;;;;;17.50;99.90;;;;;;4592565;19;20001;-33
2022/07/27 04:03:09;;;;;;;;;;;17.50;99.90;;;;;;4590689;19;19978;-33
2022/07/27 04:04:40;;;;;;;;;;;17.40;99.90;;;;;;4592911;19;19915;-33
2022/07/27 04:06:11;;;;;;;;;;;17.40;99.90;;;;;;4593553;19;19938;-33
2022/07/27 04:07:42;;;;;;;;;;;17.40;99.90;;;;;;4591753;19;20358;-32
2022/07/27 04:09:15;;;;;;;;;;;17.50;99.90;;;;;;4594109;19;20006;-33
2022/07/27 04:10:46;;;;;;;;;;;17.50;99.90;;;;;;4594104;19;19994;-32
2022/07/27 04:12:17;;;;;;;;;;;17.50;99.90;;;;;;4592181;19;19926;-33
2022/07/27 04:13:48;;;;;;;;;;;17.50;99.90;;;;;;4590508;19;19975;-33
2022/07/27 04:15:20;;;;;;;;;;;17.50;99.90;;;;;;4593796;19;19927;-33
2022/07/27 04:16:51;;;;;;;;;;;17.50;99.90;;;;;;4593979;19;20332;-34
2022/07/27 04:18:22;;;;;;;;;;;17.50;99.90;;;;;;4592355;19;19915;-33
2022/07/27 04:19:53;;;;;;;;;;;17.50;99.90;;;;;;4592169;19;19974;-33
2022/07/27 04:21:24;;;;;;;;;;;17.50;99.90;;;;;;4591103;19;20018;-34
2022/07/27 04:22:55;;;;;;;;;;;17.50;99.90;;;;;;4589951;19;19927;-34
2022/07/27 04:24:26;;;;;;;;;;;17.60;99.90;;;;;;4592609;19;19919;-34
2022/07/27 04:25:57;;;;;;;;;;;17.50;99.90;;;;;;4593631;19;20005;-33
2022/07/27 04:27:28;;;;;;;;;;;17.60;99.90;;;;;;4593054;19;19993;-33
2022/07/27 04:28:59;;;;;;;;;;;17.60;99.90;;;;;;4592363;19;19958;-34
2022/07/27 04:30:30;;;;;;;;;;;17.60;99.90;;;;;;4590445;19;19926;-33
2022/07/27 04:32:01;;;;;;;;;;;17.60;99.90;;;;;;4590120;19;19915;-33
2022/07/27 04:33:32;;;;;;;;;;;17.60;99.90;;;;;;4592647;19;20302;-32
2022/07/27 04:35:03;;;;;;;;;;;17.60;99.90;;;;;;4591413;19;19922;-33
2022/07/27 04:36:36;;;;;;;;;;;17.70;99.90;;;;;;4592829;19;20023;-32
2022/07/27 04:38:07;;;;;;;;;;;17.70;99.90;;;;;;4591626;19;20332;-33
2022/07/27 04:39:38;;;;;;;;;;;17.70;99.90;;;;;;4593251;19;19936;-34
2022/07/27 04:41:09;;;;;;;;;;;17.70;99.90;;;;;;4591226;19;19919;-33
2022/07/27 04:42:40;;;;;;;;;;;17.70;99.90;;;;;;4589884;19;19923;-33
2022/07/27 04:44:11;;;;;;;;;;;17.70;99.90;;;;;;4591403;19;19923;-34
2022/07/27 04:45:42;;;;;;;;;;;17.70;99.90;;;;;;4593297;19;19971;-34
2022/07/27 04:47:13;;;;;;;;;;;17.70;99.90;;;;;;4592705;19;20266;-33
2022/07/27 04:48:44;;;;;;;;;;;17.70;99.90;;;;;;4593348;19;19919;-32
2022/07/27 04:50:15;;;;;;;;;;;17.70;99.90;;;;;;4591649;19;20012;-33
2022/07/27 04:51:46;;;;;;;;;;;17.70;99.90;;;;;;4590899;19;19928;-34
2022/07/27 04:53:17;;;;;;;;;;;17.70;99.90;;;;;;4590435;19;20291;-33
2022/07/27 04:54:51;;;;;;;;;;;17.70;99.90;;;;;;4592749;19;19919;-33
2022/07/27 04:56:22;;;;;;;;;;;17.80;99.90;;;;;;4592300;19;19929;-33
2022/07/27 04:57:53;;;;;;;;;;;17.80;99.90;;;;;;4592204;19;20321;-33
2022/07/27 04:59:24;;;;;;;;;;;17.80;99.90;;;;;;4593188;19;19918;-33
2022/07/27 05:00:55;;;;;;;;;;;17.80;99.90;;;;;;4591821;19;20276;-33
2022/07/27 05:02:27;;;;;;;;;;;17.80;99.90;;;;;;4590900;19;19926;-34
2022/07/27 05:03:58;;;;;;;;;;;17.80;99.90;;;;;;4592276;19;19955;-34
2022/07/27 05:05:29;;;;;;;;;;;17.90;99.90;;;;;;4591635;19;19927;-34
2022/07/27 05:07:00;;;;;;;;;;;17.90;99.90;;;;;;4588299;19;19959;-33
2022/07/27 05:08:31;;;;;;;;;;;17.90;99.90;;;;;;4592034;19;19922;-32
2022/07/27 05:10:02;;;;;;;;;;;17.90;99.90;;;;;;4591943;19;20388;-33
2022/07/27 05:11:33;;;;;;;;;;;18.00;99.90;;;;;;4589796;19;19922;-33
2022/07/27 05:13:04;;;;;;;;;;;18.00;99.90;;;;;;4591702;19;19937;-33
2022/07/27 05:14:35;;;;;;;;;;;18.00;99.90;;;;;;4591661;19;19936;-33
2022/07/27 05:16:08;;;;;;;;;;;18.00;99.90;;;;;;4590803;19;19971;-32
2022/07/27 05:17:38;;;;;;;;;;;18.00;99.90;;;;;;4590346;19;20257;-34
2022/07/27 05:19:11;;;;;;;;;;;18.00;99.90;;;;;;4589542;19;19974;-33
2022/07/27 05:20:42;;;;;;;;;;;18.10;99.90;;;;;;4591138;19;19955;-33
2022/07/27 05:22:13;;;;;;;;;;;18.10;99.90;;;;;;4592364;19;19914;-32
2022/07/27 05:23:44;;;;;;;;;;;18.10;99.90;;;;;;4590442;19;19918;-31
2022/07/27 05:25:15;;;;;;;;;;;18.10;99.90;;;;;;4590137;19;19915;-32
2022/07/27 05:26:46;;;;;;;;;;;18.10;99.90;;;;;;4592853;19;19926;-32
2022/07/27 05:28:17;;;;;;;;;;;18.10;99.90;;;;;;4591279;19;20379;-32
2022/07/27 05:29:48;;;;;;;;;;;18.10;99.90;;;;;;4591564;19;19937;-33
2022/07/27 05:31:19;;;;;;;;;;;18.10;99.90;;;;;;4589365;19;20368;-33
2022/07/27 05:32:50;;;;;;;;;;;18.10;99.90;;;;;;4590749;19;19919;-33
2022/07/27 05:34:21;;;;;;;;;;;18.20;99.90;;;;;;4591727;19;19977;-32
2022/07/27 05:35:53;;;;;;;;;;;18.20;99.90;;;;;;4591229;19;19915;-33
2022/07/27 05:37:24;;;;;;;;;;;18.20;99.90;;;;;;4592296;19;19927;-33
2022/07/27 05:38:55;;;;;;;;;;;18.20;99.90;;;;;;4591423;19;19915;-31
2022/07/27 05:40:27;;;;;;;;;;;18.20;99.90;;;;;;4591289;19;19929;-33
2022/07/27 05:41:58;;;;;;;;;;;18.20;99.90;;;;;;4591590;19;19937;-33
2022/07/27 05:43:29;;;;;;;;;;;18.20;99.90;;;;;;4590121;19;19919;-33
2022/07/27 05:44:59;;;;;;;;;;;18.20;99.90;;;;;;4591297;19;19926;-33
2022/07/27 05:46:32;;;;;;;;;;;18.20;99.90;;;;;;4590883;19;19918;-33
2022/07/27 05:48:03;;;;;;;;;;;18.20;99.90;;;;;;4590579;19;19923;-31
2022/07/27 05:49:34;;;;;;;;;;;18.20;99.90;;;;;;4591444;19;19923;-34
2022/07/27 05:51:05;;;;;;;;;;;18.20;99.90;;;;;;4589389;19;19933;-33
2022/07/27 05:52:37;;;;;;;;;;;18.20;99.90;;;;;;4590489;19;19925;-32
2022/07/27 05:54:07;;;;;;;;;;;18.20;99.90;;;;;;4591309;19;20316;-32
2022/07/27 05:55:38;;;;;;;;;;;18.20;99.90;;;;;;4591609;19;19919;-34
2022/07/27 05:57:09;;;;;;;;;;;18.30;99.90;;;;;;4591086;19;19918;-35
2022/07/27 05:58:40;;;;;;;;;;;18.30;99.90;;;;;;4591683;19;19970;-33
2022/07/27 06:00:11;;;;;;;;;;;18.30;99.90;;;;;;4592006;19;19937;-34
2022/07/27 06:01:42;;;;;;;;;;;18.30;99.90;;;;;;4591112;19;20357;-33
2022/07/27 06:03:13;;;;;;;;;;;18.30;99.90;;;;;;4589764;19;19919;-33
2022/07/27 06:04:44;;;;;;;;;;;18.30;99.90;;;;;;4591221;19;19978;-34
2022/07/27 06:08:08;;;;;;;;;;;18.30;99.90;;;;;;4590723;19;20274;-31
2022/07/27 06:09:39;;;;;;;;;;;18.40;99.90;;;;;;4591095;19;19921;-34
2022/07/27 06:11:10;;;;;;;;;;;18.40;99.90;;;;;;4591944;19;19930;-33
2022/07/27 06:12:41;;;;;;;;;;;18.40;99.90;;;;;;4590025;19;19915;-33
2022/07/27 06:14:12;;;;;;;;;;;18.40;99.90;;;;;;4590646;19;19948;-33
2022/07/27 06:15:43;;;;;;;;;;;18.40;99.90;;;;;;4590827;19;19915;-32
2022/07/27 06:17:15;;;;;;;;;;;18.40;99.90;;;;;;4589881;19;20275;-33
2022/07/27 06:18:47;;;;;;;;;;;18.40;99.90;;;;;;4590208;19;19918;-34
2022/07/27 06:20:18;;;;;;;;;;;18.40;99.90;;;;;;4589588;19;19919;-35
2022/07/27 06:21:49;;;;;;;;;;;18.40;99.90;;;;;;4589046;19;19918;-34
2022/07/27 06:23:20;;;;;;;;;;;18.40;99.90;;;;;;4588578;19;20535;-33
2022/07/27 06:24:52;;;;;;;;;;;18.40;99.90;;;;;;4591209;19;19914;-32
2022/07/27 06:26:23;;;;;;;;;;;18.40;99.90;;;;;;4590495;19;19970;-32
2022/07/27 06:27:54;;;;;;;;;;;18.40;99.90;;;;;;4591535;19;20340;-32
2022/07/27 06:29:25;;;;;;;;;;;18.40;99.90;;;;;;4595787;19;19949;-33
2022/07/27 06:30:56;;;;;;;;;;;18.40;99.90;;;;;;4595715;19;20341;-33
2022/07/27 06:32:27;;;;;;;;;;;18.40;99.90;;;;;;4594810;19;19915;-33
2022/07/27 06:33:58;;;;;;;;;;;18.40;99.90;;;;;;4594412;19;19976;-32
2022/07/27 06:35:29;;;;;;;;;;;18.40;99.90;;;;;;4595072;19;19991;-33
2022/07/27 06:37:00;;;;;;;;;;;18.50;99.90;;;;;;4594581;19;19930;-34
2022/07/27 06:38:31;;;;;;;;;;;18.40;99.90;;;;;;4592916;19;19998;-33
2022/07/27 06:40:03;;;;;;;;;;;18.50;99.90;;;;;;4595171;19;19926;-32
2022/07/27 06:41:34;;;;;;;;;;;18.50;99.90;;;;;;4595931;19;19919;-32
2022/07/27 06:43:05;;;;;;;;;;;18.50;99.90;;;;;;4593817;19;19911;-31
2022/07/27 06:44:36;;;;;;;;;;;18.60;99.90;;;;;;4595265;19;19925;-33
2022/07/27 06:46:11;;;;;;;;;;;18.60;99.90;;;;;;4594991;19;19907;-33
2022/07/27 06:47:43;;;;;;;;;;;18.60;99.90;;;;;;4594816;19;20013;-33
2022/07/27 06:49:16;;;;;;;;;;;18.60;99.90;;;;;;4595238;19;19926;-32
2022/07/27 06:50:48;;;;;;;;;;;18.60;99.90;;;;;;4594988;19;20382;-32
2022/07/27 06:52:19;;;;;;;;;;;18.60;99.90;;;;;;4595826;19;19923;-32
2022/07/27 06:53:53;;;;;;;;;;;18.60;99.90;;;;;;4594826;19;20268;-33
2022/07/27 06:55:24;;;;;;;;;;;18.70;99.90;;;;;;4595179;19;19929;-34
2022/07/27 06:56:55;;;;;;;;;;;18.70;99.90;;;;;;4595368;19;20256;-32
2022/07/27 06:58:26;;;;;;;;;;;18.70;99.90;;;;;;4595701;19;19915;-32
2022/07/27 06:59:58;;;;;;;;;;;18.70;99.90;;;;;;4593879;19;20288;-32
2022/07/27 07:01:29;;;;;;;;;;;18.70;99.90;;;;;;4593654;19;19923;-30
2022/07/27 07:03:01;;;;;;;;;;;18.70;99.90;;;;;;4592610;19;19982;-30
2022/07/27 07:04:34;;;;;;;;;;;18.70;99.90;;;;;;4593599;19;20383;-34
2022/07/27 07:06:06;;;;;;;;;;;18.70;99.90;;;;;;4593735;19;19934;-31
2022/07/27 07:07:37;;;;;;;;;;;18.70;99.90;;;;;;4594678;19;19922;-31
2022/07/27 07:09:09;;;;;;;;;;;18.70;99.90;;;;;;4593836;19;19915;-33
2022/07/27 07:10:42;;;;;;;;;;;18.70;99.90;;;;;;4594708;19;19929;-32
2022/07/27 07:12:14;;;;;;;;;;;18.70;99.90;;;;;;4593831;19;19930;-33
2022/07/27 07:13:45;;;;;;;;;;;18.70;99.90;;;;;;4594087;19;19919;-33
2022/07/27 07:15:16;;;;;;;;;;;18.70;99.90;;;;;;4594433;19;19911;-32
2022/07/27 07:16:47;;;;;;;;;;;18.70;99.90;;;;;;4593903;19;19918;-33
2022/07/27 07:18:18;;;;;;;;;;;18.70;99.90;;;;;;4595037;19;19943;-33
2022/07/27 07:19:49;;;;;;;;;;;18.70;99.90;;;;;;4594436;19;19918;-33
2022/07/27 07:21:20;;;;;;;;;;;18.80;99.90;;;;;;4594375;19;20549;-32
2022/07/27 07:22:51;;;;;;;;;;;18.80;99.90;;;;;;4591770;19;19982;-33
2022/07/27 07:24:23;;;;;;;;;;;18.80;99.90;;;;;;4594716;19;20366;-34
2022/07/27 07:25:54;;;;;;;;;;;18.80;99.90;;;;;;4595046;19;20352;-34
2022/07/27 07:27:25;;;;;;;;;;;18.80;99.90;;;;;;4594476;19;19921;-33
2022/07/27 07:28:56;;;;;;;;;;;18.80;99.90;;;;;;4594707;19;20234;-33
2022/07/27 07:30:28;;;;;;;;;;;18.80;99.90;;;;;;4594718;19;19919;-32
2022/07/27 07:31:59;;;;;;;;;;;18.80;99.90;;;;;;4593627;19;20380;-33
2022/07/27 07:33:29;;;;;;;;;;;18.90;99.90;;;;;;4594229;19;19933;-34
2022/07/27 07:35:02;;;;;;;;;;;18.90;99.90;;;;;;4592804;19;19946;-33
2022/07/27 07:36:35;;;;;;;;;;;18.90;99.90;;;;;;4592930;19;19914;-33
2022/07/27 07:38:06;;;;;;;;;;;18.90;99.90;;;;;;4594572;19;19921;-33
2022/07/27 07:39:37;;;;;;;;;;;18.90;99.90;;;;;;4593031;19;19918;-33
2022/07/27 07:41:08;;;;;;;;;;;18.90;99.90;;;;;;4594784;19;19930;-32
2022/07/27 07:42:53;;;;;;;;;;;19.00;99.90;;;;;;4592352;19;19949;-32
2022/07/27 07:44:25;;;;;;;;;;;18.90;99.90;;;;;;4593645;19;19933;-33
2022/07/27 07:45:56;;;;;;;;;;;19.00;99.90;;;;;;4591338;19;19934;-33
2022/07/27 07:47:27;;;;;;;;;;;19.00;99.90;;;;;;4589903;19;20584;-34
2022/07/27 07:48:59;;;;;;;;;;;19.00;99.90;;;;;;4590690;19;21281;-33
2022/07/27 07:50:30;;;;;;;;;;;19.00;99.90;;;;;;4589819;19;19944;-33
2022/07/27 07:52:01;;;;;;;;;;;19.00;99.90;;;;;;4589546;19;20375;-33
2022/07/27 07:53:32;;;;;;;;;;;19.00;99.90;;;;;;4591693;19;20273;-33
2022/07/27 07:55:04;;;;;;;;;;;19.00;99.90;;;;;;4590615;19;19983;-32
2022/07/27 07:56:35;;;;;;;;;;;19.10;99.90;;;;;;4588790;19;19960;-32
2022/07/27 07:58:06;;;;;;;;;;;19.10;99.90;;;;;;4591675;19;19927;-34
2022/07/27 07:59:37;;;;;;;;;;;19.10;99.90;;;;;;4591608;19;19919;-33
2022/07/27 08:01:10;;;;;;;;;;;19.10;99.90;;;;;;4590423;19;19915;-33
2022/07/27 08:02:47;;;;;;;;;;;19.10;99.90;;;;;;4590213;19;19914;-32
2022/07/27 08:04:19;;;;;;;;;;;19.10;99.90;;;;;;4590221;19;20463;-34
2022/07/27 08:05:49;;;;;;;;;;;19.10;99.90;;;;;;4590075;19;19923;-33
2022/07/27 08:07:21;;;;;;;;;;;19.10;99.90;;;;;;4588111;19;20014;-33
2022/07/27 08:08:51;;;;;;;;;;;19.10;99.90;;;;;;4589841;19;19915;-34
2022/07/27 08:10:22;;;;;;;;;;;19.10;99.90;;;;;;4589594;19;20006;-33
2022/07/27 08:11:55;;;;;;;;;;;19.10;99.90;;;;;;4590604;19;19918;-33
2022/07/27 08:13:26;;;;;;;;;;;19.10;99.90;;;;;;4592182;19;20362;-33
2022/07/27 08:14:57;;;;;;;;;;;19.10;99.90;;;;;;4590305;19;19926;-34
2022/07/27 08:16:28;;;;;;;;;;;19.10;99.90;;;;;;4590038;19;19919;-34
2022/07/27 08:17:59;;;;;;;;;;;19.10;99.90;;;;;;4591358;19;19918;-33
2022/07/27 08:19:30;;;;;;;;;;;19.10;99.90;;;;;;4594248;19;19926;-33
2022/07/27 08:21:01;;;;;;;;;;;19.10;99.90;;;;;;4592347;19;20344;-33
2022/07/27 08:22:32;;;;;;;;;;;19.10;99.90;;;;;;4592256;19;19919;-33
2022/07/27 08:24:03;;;;;;;;;;;19.10;99.90;;;;;;4591742;19;20352;-32
2022/07/27 08:25:35;;;;;;;;;;;19.10;99.90;;;;;;4590434;19;19928;-33
2022/07/27 08:27:05;;;;;;;;;;;19.10;99.90;;;;;;4591974;19;19919;-34
2022/07/27 08:28:36;;;;;;;;;;;19.20;99.90;;;;;;4593627;19;19922;-33
2022/07/27 08:30:08;;;;;;;;;;;19.10;99.90;;;;;;4592705;19;19926;-33
2022/07/27 08:31:39;;;;;;;;;;;19.20;99.90;;;;;;4593035;19;20359;-33
2022/07/27 08:33:25;;;;;;;;;;;19.10;99.90;;;;;;4592850;19;20643;-33
2022/07/27 08:34:56;;;;;;;;;;;19.20;99.90;;;;;;4592574;19;19926;-31
2022/07/27 08:36:27;;;;;;;;;;;19.20;99.90;;;;;;4592690;19;19930;-33
2022/07/27 08:37:58;;;;;;;;;;;19.20;99.90;;;;;;4592002;19;19931;-32
2022/07/27 08:39:29;;;;;;;;;;;19.20;99.90;;;;;;4592755;19;19989;-33
2022/07/27 08:41:01;;;;;;;;;;;19.20;99.90;;;;;;4592775;19;19915;-34
2022/07/27 08:42:31;;;;;;;;;;;19.20;99.90;;;;;;4592349;19;19926;-33
2022/07/27 08:44:03;;;;;;;;;;;19.20;99.90;;;;;;4592319;19;19926;-32
2022/07/27 08:45:33;;;;;;;;;;;19.20;99.90;;;;;;4591897;19;20341;-33
2022/07/27 08:47:04;;;;;;;;;;;19.20;99.90;;;;;;4592804;19;19923;-33
2022/07/27 08:48:36;;;;;;;;;;;19.20;99.90;;;;;;4590250;19;20313;-33
2022/07/27 08:50:22;;;;;;;;;;;19.20;99.90;;;;;;4592841;19;19915;-33
2022/07/27 08:51:53;;;;;;;;;;;19.10;99.90;;;;;;4590176;19;20325;-33
2022/07/27 08:53:24;;;;;;;;;;;19.20;99.90;;;;;;4593404;19;19937;-33
2022/07/27 08:54:55;;;;;;;;;;;19.20;99.90;;;;;;4591430;19;20579;-34
2022/07/27 08:56:26;;;;;;;;;;;19.20;99.90;;;;;;4591480;19;19915;-33